createdAt,value
2023-03-10T00:02:18.179Z,22.00
2023-03-10T00:07:22.616Z,19.88
2023-03-10T00:12:28.004Z,16.95
2023-03-10T00:17:31.024Z,14.25
2023-03-10T00:22:35.992Z,14.25
2023-03-10T00:27:39.009Z,12.18
2023-03-10T00:32:42.011Z,12.85
2023-03-10T00:37:46.614Z,11.80
2023-03-10T00:42:49.582Z,12.07
2023-03-10T00:47:52.819Z,11.82
2023-03-10T00:52:57.221Z,12.13
2023-03-10T00:58:00.456Z,13.80
2023-03-10T01:03:03.332Z,15.40
2023-03-10T01:08:07.907Z,17.48
2023-03-10T01:13:11.331Z,19.85
2023-03-10T01:18:15.083Z,20.65
2023-03-10T01:23:20.438Z,19.60
2023-03-10T01:28:23.908Z,16.20
2023-03-10T01:33:26.769Z,17.02
2023-03-10T01:38:31.135Z,13.95
2023-03-10T01:43:35.398Z,13.18
2023-03-10T01:48:38.806Z,13.63
2023-03-10T01:53:44.785Z,13.15
2023-03-10T01:58:48.169Z,12.88
2023-03-10T02:03:52.910Z,14.15
2023-03-10T02:08:59.241Z,13.52
2023-03-10T02:14:03.811Z,12.77
2023-03-10T02:19:10.251Z,15.73
2023-03-10T02:24:17.690Z,13.05
2023-03-10T02:29:25.193Z,14.27
2023-03-10T02:34:29.005Z,12.20
2023-03-10T02:39:32.082Z,11.15
2023-03-10T02:44:36.922Z,9.95
2023-03-10T02:49:40.779Z,9.35
2023-03-10T02:54:43.710Z,8.00
2023-03-10T02:59:48.431Z,9.07
2023-03-10T03:04:51.420Z,8.63
2023-03-10T03:09:54.467Z,8.27
2023-03-10T03:14:58.934Z,7.95
2023-03-10T03:20:02.132Z,7.20
2023-03-10T03:25:06.526Z,7.85
2023-03-10T03:30:12.478Z,7.13
2023-03-10T03:35:16.935Z,6.93
2023-03-10T03:40:20.253Z,5.93
2023-03-10T03:45:25.989Z,5.95
2023-03-10T03:50:29.309Z,5.43
2023-03-10T03:55:32.491Z,6.50
2023-03-10T04:00:40.013Z,7.20
2023-03-10T04:05:43.154Z,5.78
2023-03-10T04:10:51.365Z,6.38
2023-03-10T04:15:59.819Z,6.03
2023-03-10T04:21:02.952Z,5.63
2023-03-10T04:26:08.353Z,6.32
2023-03-10T04:31:14.520Z,6.85
2023-03-10T04:36:18.675Z,6.13
2023-03-10T04:41:21.861Z,5.97
2023-03-10T04:46:26.355Z,5.72
2023-03-10T04:51:29.480Z,5.47
2023-03-10T04:56:32.397Z,5.20
2023-03-10T05:01:36.863Z,5.97
2023-03-10T05:06:39.902Z,5.10
2023-03-10T05:11:42.854Z,5.60
2023-03-10T05:16:48.101Z,6.05
2023-03-10T05:21:51.092Z,6.18
2023-03-10T05:26:54.174Z,5.40
2023-03-10T05:31:58.545Z,5.38
2023-03-10T05:37:01.870Z,5.20
2023-03-10T05:42:05.010Z,5.00
2023-03-10T05:47:09.538Z,4.72
2023-03-10T05:52:12.744Z,4.88
2023-03-10T05:57:15.779Z,5.20
2023-03-10T06:02:20.110Z,6.13
2023-03-10T06:07:23.249Z,4.88
2023-03-10T06:12:26.316Z,4.85
2023-03-10T06:17:30.779Z,5.53
2023-03-10T06:22:33.786Z,5.57
2023-03-10T06:27:37.072Z,5.60
2023-03-10T06:32:41.655Z,5.15
2023-03-10T06:37:44.664Z,5.63
2023-03-10T06:42:47.987Z,4.82
2023-03-10T06:47:52.407Z,4.95
2023-03-10T06:52:55.602Z,5.28
2023-03-10T06:57:58.830Z,5.00
2023-03-10T07:03:03.174Z,5.45
2023-03-10T07:08:06.242Z,5.40
2023-03-10T07:13:10.844Z,5.32
2023-03-10T07:18:15.847Z,5.40
2023-03-10T07:23:18.890Z,4.93
2023-03-10T07:28:22.001Z,4.97
2023-03-10T07:33:26.394Z,4.55
2023-03-10T07:38:29.470Z,4.50
2023-03-10T07:43:32.618Z,4.95
2023-03-10T07:48:37.202Z,4.65
2023-03-10T07:53:40.344Z,6.05
2023-03-10T07:58:43.279Z,5.18
2023-03-10T08:03:47.934Z,4.43
2023-03-10T08:08:51.249Z,4.63
2023-03-10T08:13:54.195Z,4.13
2023-03-10T08:18:58.696Z,4.75
2023-03-10T08:24:01.637Z,4.50
2023-03-10T08:29:04.819Z,5.40
2023-03-10T08:34:09.391Z,5.63
2023-03-10T08:39:12.528Z,5.72
2023-03-10T08:44:17.860Z,5.07
2023-03-10T08:49:23.379Z,5.50
2023-03-10T08:54:26.590Z,5.38
2023-03-10T08:59:30.393Z,4.45
2023-03-10T09:04:34.983Z,4.90
2023-03-10T09:09:38.140Z,4.88
2023-03-10T09:14:41.338Z,4.68
2023-03-10T09:19:45.743Z,4.88
2023-03-10T09:24:48.822Z,5.13
2023-03-10T09:29:51.859Z,5.35
2023-03-10T09:34:56.273Z,5.60
2023-03-10T09:39:59.437Z,4.80
2023-03-10T09:45:05.864Z,4.93
2023-03-10T09:50:19.106Z,4.90
2023-03-10T09:55:23.050Z,5.32
2023-03-10T10:00:28.373Z,4.95
2023-03-10T10:05:33.791Z,4.70
2023-03-10T10:10:37.843Z,4.45
2023-03-10T10:15:44.508Z,4.70
2023-03-10T10:20:50.763Z,4.85
2023-03-10T10:25:54.850Z,5.05
2023-03-10T10:31:10.869Z,4.93
2023-03-10T10:36:17.011Z,4.35
2023-03-10T10:41:21.677Z,5.38
2023-03-10T10:46:26.090Z,5.10
2023-03-10T10:51:32.467Z,4.82
2023-03-10T10:56:35.539Z,4.97
2023-03-10T11:01:49.369Z,5.00
2023-03-10T11:06:54.179Z,4.15
2023-03-10T11:12:01.778Z,5.20
2023-03-10T11:17:08.367Z,4.97
2023-03-10T11:22:18.418Z,4.38
2023-03-10T11:27:25.501Z,3.95
2023-03-10T11:32:35.044Z,4.70
2023-03-10T11:37:43.348Z,5.00
2023-03-10T11:42:49.568Z,4.53
2023-03-10T11:47:58.312Z,4.82
2023-03-10T11:53:04.295Z,4.55
2023-03-10T11:58:07.225Z,4.75
2023-03-10T12:03:16.272Z,5.20
2023-03-10T12:08:22.135Z,4.30
2023-03-10T12:13:27.123Z,5.45
2023-03-10T12:18:30.284Z,4.13
2023-03-10T12:23:42.318Z,4.43
2023-03-10T12:28:45.616Z,4.43
2023-03-10T12:33:50.878Z,4.30
2023-03-10T12:38:57.696Z,4.25
2023-03-10T12:44:01.679Z,4.57
2023-03-10T12:49:09.538Z,4.60
2023-03-10T12:54:42.365Z,4.20
2023-03-10T12:59:50.587Z,4.75
2023-03-10T13:04:57.175Z,4.35
2023-03-10T13:10:03.589Z,4.70
2023-03-10T13:15:09.075Z,4.93
2023-03-10T13:20:15.462Z,4.03
2023-03-10T13:25:19.772Z,3.97
2023-03-10T13:30:23.535Z,4.70
2023-03-10T13:35:30.896Z,4.57
2023-03-10T13:40:35.449Z,5.13
2023-03-10T13:45:38.508Z,3.88
2023-03-10T13:50:41.710Z,3.95
2023-03-10T13:55:46.503Z,4.47
2023-03-10T14:00:50.802Z,4.25
2023-03-10T14:05:54.112Z,4.00
2023-03-10T14:11:11.941Z,5.22
2023-03-10T14:16:16.714Z,4.40
2023-03-10T14:21:52.271Z,4.82
2023-03-10T14:27:02.175Z,5.95
2023-03-10T14:32:07.299Z,4.53
2023-03-10T14:37:10.348Z,4.13
2023-03-10T14:42:19.525Z,6.97
2023-03-10T14:47:24.125Z,6.63
2023-03-10T14:52:27.574Z,7.10
2023-03-10T14:57:30.707Z,7.30
2023-03-10T15:02:35.308Z,6.70
2023-03-10T15:07:38.387Z,5.00
2023-03-10T15:12:42.123Z,5.20
2023-03-10T15:17:46.686Z,5.32
2023-03-10T15:22:50.409Z,4.57
2023-03-10T15:27:53.938Z,5.13
2023-03-10T15:32:58.450Z,7.60
2023-03-10T15:38:01.785Z,6.43
2023-03-10T15:43:04.888Z,6.07
2023-03-10T15:48:09.978Z,6.72
2023-03-10T15:53:13.039Z,7.05
2023-03-10T15:58:16.118Z,11.00
2023-03-10T16:03:20.637Z,9.52
2023-03-10T16:08:23.936Z,8.20
2023-03-10T16:13:27.301Z,6.72
2023-03-10T16:18:31.966Z,8.80
2023-03-10T16:23:35.057Z,9.75
2023-03-10T16:28:48.284Z,9.60
2023-03-10T16:33:53.319Z,11.13
2023-03-10T16:38:56.818Z,9.32
2023-03-10T16:44:00.092Z,9.32
2023-03-10T16:49:04.799Z,9.60
2023-03-10T16:54:08.516Z,11.35
2023-03-10T16:59:16.361Z,10.43
2023-03-10T17:04:22.281Z,20.40
2023-03-10T17:09:25.654Z,16.38
2023-03-10T17:14:29.216Z,26.67
2023-03-10T17:19:33.746Z,19.60
2023-03-10T17:24:36.856Z,26.38
2023-03-10T17:29:40.110Z,21.10
2023-03-10T17:34:44.582Z,20.50
2023-03-10T17:39:48.379Z,19.58
2023-03-10T17:44:51.578Z,23.33
2023-03-10T17:50:00.180Z,21.30
2023-03-10T17:55:03.328Z,27.20
2023-03-10T18:00:08.542Z,27.95
2023-03-10T18:05:13.471Z,25.02
2023-03-10T18:10:17.498Z,27.77
2023-03-10T18:15:20.547Z,25.17
2023-03-10T18:20:25.166Z,23.30
2023-03-10T18:25:28.337Z,26.00
2023-03-10T18:30:31.390Z,24.05
2023-03-10T18:35:38.500Z,27.35
2023-03-10T18:40:41.488Z,28.40
2023-03-10T18:45:45.169Z,23.83
2023-03-10T18:50:55.021Z,25.70
2023-03-10T18:56:18.988Z,24.25
2023-03-10T19:01:22.028Z,24.00
2023-03-10T19:06:30.060Z,23.67
2023-03-10T19:11:36.513Z,18.90
2023-03-10T19:16:40.828Z,18.65
2023-03-10T19:21:45.348Z,19.67
2023-03-10T19:26:49.783Z,20.67
2023-03-10T19:31:52.778Z,21.83
2023-03-10T19:36:57.585Z,17.55
2023-03-10T19:42:00.598Z,19.48
2023-03-10T19:47:03.754Z,20.38
2023-03-10T19:52:08.042Z,21.10
2023-03-10T19:57:13.696Z,20.50
2023-03-10T20:02:17.440Z,23.48
2023-03-10T20:07:21.881Z,24.50
2023-03-10T20:12:25.038Z,22.27
2023-03-10T20:17:28.424Z,24.15
2023-03-10T20:22:33.004Z,24.85
2023-03-10T20:27:36.051Z,22.75
2023-03-10T20:32:39.146Z,22.55
2023-03-10T20:37:43.761Z,25.65
2023-03-10T20:42:46.956Z,23.98
2023-03-10T20:47:50.521Z,21.25
2023-03-10T20:52:55.006Z,22.63
2023-03-10T20:57:59.235Z,19.48
2023-03-10T21:03:02.157Z,17.33
2023-03-10T21:08:06.772Z,17.52
2023-03-10T21:13:09.890Z,15.18
2023-03-10T21:18:12.892Z,16.88
2023-03-10T21:23:17.346Z,17.35
2023-03-10T21:28:20.545Z,15.23
2023-03-10T21:33:23.489Z,15.57
2023-03-10T21:38:27.808Z,15.68
2023-03-10T21:43:30.875Z,17.08
2023-03-10T21:48:34.340Z,16.50
2023-03-10T21:53:38.740Z,16.92
2023-03-10T21:58:41.658Z,17.80
2023-03-10T22:03:44.757Z,18.35
2023-03-10T22:08:49.542Z,20.55
2023-03-10T22:13:54.316Z,17.75
2023-03-10T22:18:57.373Z,18.77
2023-03-10T22:24:03.206Z,16.23
2023-03-10T22:29:06.310Z,14.65
2023-03-10T22:34:09.344Z,14.73
2023-03-10T22:39:14.362Z,31.92
2023-03-10T22:44:17.506Z,16.13
2023-03-10T22:49:20.574Z,18.70
2023-03-10T22:54:24.988Z,15.10
2023-03-10T22:59:27.931Z,14.85
2023-03-10T23:04:31.003Z,13.68
2023-03-10T23:09:35.472Z,14.27
2023-03-10T23:14:38.469Z,14.35
2023-03-10T23:19:41.956Z,14.20
2023-03-10T23:24:46.457Z,15.02
2023-03-10T23:29:49.465Z,16.55
2023-03-10T23:34:52.454Z,14.55
2023-03-10T23:39:56.982Z,14.68
2023-03-10T23:44:59.949Z,14.38
2023-03-10T23:50:03.554Z,14.38
2023-03-10T23:55:08.701Z,14.73
